sensor_id;sensor_type;location;lat;lon;timestamp;pressure;altitude;pressure_sealevel;temperature;humidity
76726;BME280;65651;53.154;17.916;2023-04-29T00:01:34;100721.05;;;8.75;50.79
76726;BME280;65651;53.154;17.916;2023-04-29T00:04:02;100722.74;;;8.74;50.84
76726;BME280;65651;53.154;17.916;2023-04-29T00:06:29;100720.94;;;8.72;51.13
76726;BME280;65651;53.154;17.916;2023-04-29T00:08:56;100714.69;;;8.70;51.17
76726;BME280;65651;53.154;17.916;2023-04-29T00:11:27;100715.69;;;8.67;51.47
76726;BME280;65651;53.154;17.916;2023-04-29T00:13:54;100714.56;;;8.63;51.39
76726;BME280;65651;53.154;17.916;2023-04-29T00:16:22;100712.17;;;8.59;51.35
76726;BME280;65651;53.154;17.916;2023-04-29T00:18:52;100714.89;;;8.57;51.42
76726;BME280;65651;53.154;17.916;2023-04-29T00:21:22;100713.63;;;8.53;51.67
76726;BME280;65651;53.154;17.916;2023-04-29T00:23:50;100711.55;;;8.48;51.51
76726;BME280;65651;53.154;17.916;2023-04-29T00:26:18;100713.65;;;8.42;52.24
76726;BME280;65651;53.154;17.916;2023-04-29T00:28:46;100711.77;;;8.38;52.01
76726;BME280;65651;53.154;17.916;2023-04-29T00:31:13;100710.52;;;8.32;52.05
76726;BME280;65651;53.154;17.916;2023-04-29T00:33:41;100704.33;;;8.27;52.33
76726;BME280;65651;53.154;17.916;2023-04-29T00:36:08;100700.12;;;8.24;52.30
76726;BME280;65651;53.154;17.916;2023-04-29T00:38:36;100697.99;;;8.20;52.38
76726;BME280;65651;53.154;17.916;2023-04-29T00:41:03;100695.71;;;8.17;52.43
76726;BME280;65651;53.154;17.916;2023-04-29T00:43:31;100691.80;;;8.15;52.61
76726;BME280;65651;53.154;17.916;2023-04-29T00:45:58;100693.22;;;8.13;52.44
76726;BME280;65651;53.154;17.916;2023-04-29T00:48:26;100693.30;;;8.12;52.85
76726;BME280;65651;53.154;17.916;2023-04-29T00:50:54;100695.55;;;8.11;52.85
76726;BME280;65651;53.154;17.916;2023-04-29T00:53:22;100692.14;;;8.09;53.14
76726;BME280;65651;53.154;17.916;2023-04-29T00:55:50;100694.42;;;8.09;53.02
76726;BME280;65651;53.154;17.916;2023-04-29T00:58:18;100692.10;;;8.09;52.99
76726;BME280;65651;53.154;17.916;2023-04-29T01:00:46;100692.36;;;8.08;53.12
76726;BME280;65651;53.154;17.916;2023-04-29T01:03:15;100689.36;;;8.07;52.96
76726;BME280;65651;53.154;17.916;2023-04-29T01:05:48;100692.77;;;8.07;53.22
76726;BME280;65651;53.154;17.916;2023-04-29T01:11:04;100689.58;;;8.07;53.48
76726;BME280;65651;53.154;17.916;2023-04-29T01:13:53;100687.05;;;8.07;53.54
76726;BME280;65651;53.154;17.916;2023-04-29T01:16:32;100686.34;;;8.07;53.70
76726;BME280;65651;53.154;17.916;2023-04-29T01:19:15;100684.90;;;8.07;53.87
76726;BME280;65651;53.154;17.916;2023-04-29T01:21:48;100682.67;;;8.06;53.98
76726;BME280;65651;53.154;17.916;2023-04-29T01:24:16;100681.65;;;8.06;53.38
76726;BME280;65651;53.154;17.916;2023-04-29T01:32:51;100680.38;;;8.04;53.71
76726;BME280;65651;53.154;17.916;2023-04-29T01:35:33;100682.00;;;8.01;53.86
76726;BME280;65651;53.154;17.916;2023-04-29T01:40:47;100677.11;;;7.94;53.74
76726;BME280;65651;53.154;17.916;2023-04-29T01:43:27;100676.02;;;7.88;54.09
76726;BME280;65651;53.154;17.916;2023-04-29T01:45:56;100678.05;;;7.83;54.27
76726;BME280;65651;53.154;17.916;2023-04-29T01:48:25;100678.25;;;7.78;54.42
76726;BME280;65651;53.154;17.916;2023-04-29T01:50:55;100675.73;;;7.71;54.74
76726;BME280;65651;53.154;17.916;2023-04-29T01:53:22;100678.17;;;7.66;54.84
76726;BME280;65651;53.154;17.916;2023-04-29T01:55:50;100675.67;;;7.59;55.24
76726;BME280;65651;53.154;17.916;2023-04-29T01:58:23;100677.39;;;7.53;55.35
76726;BME280;65651;53.154;17.916;2023-04-29T02:01:17;100672.92;;;7.47;55.46
76726;BME280;65651;53.154;17.916;2023-04-29T02:03:44;100676.39;;;7.42;55.47
76726;BME280;65651;53.154;17.916;2023-04-29T02:06:12;100670.35;;;7.37;55.37
76726;BME280;65651;53.154;17.916;2023-04-29T02:08:39;100668.77;;;7.33;55.68
76726;BME280;65651;53.154;17.916;2023-04-29T02:11:07;100667.64;;;7.28;55.50
76726;BME280;65651;53.154;17.916;2023-04-29T02:13:39;100667.81;;;7.26;55.79
76726;BME280;65651;53.154;17.916;2023-04-29T02:16:08;100663.48;;;7.22;55.67
76726;BME280;65651;53.154;17.916;2023-04-29T02:18:36;100668.66;;;7.22;55.66
76726;BME280;65651;53.154;17.916;2023-04-29T02:21:05;100670.37;;;7.21;56.14
76726;BME280;65651;53.154;17.916;2023-04-29T02:23:35;100670.96;;;7.20;56.16
76726;BME280;65651;53.154;17.916;2023-04-29T02:26:03;100668.36;;;7.19;56.30
76726;BME280;65651;53.154;17.916;2023-04-29T02:28:37;100664.86;;;7.19;56.44
76726;BME280;65651;53.154;17.916;2023-04-29T02:31:05;100662.60;;;7.18;56.48
76726;BME280;65651;53.154;17.916;2023-04-29T02:33:32;100664.73;;;7.18;56.51
76726;BME280;65651;53.154;17.916;2023-04-29T02:36:00;100655.84;;;7.17;56.73
76726;BME280;65651;53.154;17.916;2023-04-29T02:38:27;100660.33;;;7.17;56.81
76726;BME280;65651;53.154;17.916;2023-04-29T02:40:55;100654.74;;;7.16;56.85
76726;BME280;65651;53.154;17.916;2023-04-29T02:43:22;100652.80;;;7.15;56.73
76726;BME280;65651;53.154;17.916;2023-04-29T02:45:51;100652.52;;;7.14;56.94
76726;BME280;65651;53.154;17.916;2023-04-29T02:48:18;100649.38;;;7.14;57.01
76726;BME280;65651;53.154;17.916;2023-04-29T02:50:46;100651.09;;;7.12;56.87
76726;BME280;65651;53.154;17.916;2023-04-29T02:53:13;100649.73;;;7.11;57.23
76726;BME280;65651;53.154;17.916;2023-04-29T02:55:41;100649.52;;;7.10;57.28
76726;BME280;65651;53.154;17.916;2023-04-29T02:58:10;100653.30;;;7.07;57.14
76726;BME280;65651;53.154;17.916;2023-04-29T03:00:39;100649.85;;;7.06;57.36
76726;BME280;65651;53.154;17.916;2023-04-29T03:03:09;100652.27;;;7.04;57.40
76726;BME280;65651;53.154;17.916;2023-04-29T03:05:37;100648.50;;;7.02;57.55
76726;BME280;65651;53.154;17.916;2023-04-29T03:08:04;100649.16;;;7.03;57.54
76726;BME280;65651;53.154;17.916;2023-04-29T03:10:31;100648.56;;;7.02;57.59
76726;BME280;65651;53.154;17.916;2023-04-29T03:12:59;100643.02;;;6.99;57.73
76726;BME280;65651;53.154;17.916;2023-04-29T03:15:26;100641.70;;;6.96;57.50
76726;BME280;65651;53.154;17.916;2023-04-29T03:17:56;100644.08;;;6.93;57.78
76726;BME280;65651;53.154;17.916;2023-04-29T03:20:25;100645.25;;;6.89;58.02
76726;BME280;65651;53.154;17.916;2023-04-29T03:22:53;100647.81;;;6.86;57.99
76726;BME280;65651;53.154;17.916;2023-04-29T03:25:22;100650.45;;;6.82;58.09
76726;BME280;65651;53.154;17.916;2023-04-29T03:27:51;100649.05;;;6.80;58.20
76726;BME280;65651;53.154;17.916;2023-04-29T03:30:22;100647.99;;;6.78;58.22
76726;BME280;65651;53.154;17.916;2023-04-29T03:32:51;100642.59;;;6.76;58.57
76726;BME280;65651;53.154;17.916;2023-04-29T03:35:20;100645.27;;;6.73;58.64
76726;BME280;65651;53.154;17.916;2023-04-29T03:38:06;100644.40;;;6.73;58.62
76726;BME280;65651;53.154;17.916;2023-04-29T03:40:34;100642.31;;;6.72;58.74
76726;BME280;65651;53.154;17.916;2023-04-29T03:43:01;100644.35;;;6.73;58.85
76726;BME280;65651;53.154;17.916;2023-04-29T03:45:29;100642.82;;;6.75;58.85
76726;BME280;65651;53.154;17.916;2023-04-29T03:47:57;100637.40;;;6.76;59.05
76726;BME280;65651;53.154;17.916;2023-04-29T03:50:25;100638.16;;;6.78;58.96
76726;BME280;65651;53.154;17.916;2023-04-29T03:52:53;100636.91;;;6.80;59.05
76726;BME280;65651;53.154;17.916;2023-04-29T03:55:20;100638.42;;;6.83;59.28
76726;BME280;65651;53.154;17.916;2023-04-29T03:57:48;100641.82;;;6.88;59.25
76726;BME280;65651;53.154;17.916;2023-04-29T04:00:17;100641.30;;;6.92;59.24
76726;BME280;65651;53.154;17.916;2023-04-29T04:02:46;100637.05;;;6.96;59.09
76726;BME280;65651;53.154;17.916;2023-04-29T04:05:13;100637.19;;;6.99;59.34
76726;BME280;65651;53.154;17.916;2023-04-29T04:07:43;100641.55;;;7.05;59.50
76726;BME280;65651;53.154;17.916;2023-04-29T04:10:36;100641.93;;;7.11;59.45
76726;BME280;65651;53.154;17.916;2023-04-29T04:13:08;100639.79;;;7.17;59.18
76726;BME280;65651;53.154;17.916;2023-04-29T04:15:36;100643.59;;;7.21;59.28
76726;BME280;65651;53.154;17.916;2023-04-29T04:18:03;100641.09;;;7.26;59.55
76726;BME280;65651;53.154;17.916;2023-04-29T04:20:31;100640.34;;;7.30;59.40
76726;BME280;65651;53.154;17.916;2023-04-29T04:22:59;100641.72;;;7.36;59.67
76726;BME280;65651;53.154;17.916;2023-04-29T04:25:29;100642.26;;;7.40;59.55
76726;BME280;65651;53.154;17.916;2023-04-29T04:28:03;100641.05;;;7.46;59.39
76726;BME280;65651;53.154;17.916;2023-04-29T04:30:49;100637.86;;;7.52;59.43
76726;BME280;65651;53.154;17.916;2023-04-29T04:33:17;100635.00;;;7.55;59.27
76726;BME280;65651;53.154;17.916;2023-04-29T04:35:46;100640.55;;;7.59;59.45
76726;BME280;65651;53.154;17.916;2023-04-29T04:38:14;100641.82;;;7.65;59.19
76726;BME280;65651;53.154;17.916;2023-04-29T04:40:42;100636.20;;;7.68;59.32
76726;BME280;65651;53.154;17.916;2023-04-29T04:43:23;100636.74;;;7.74;59.42
76726;BME280;65651;53.154;17.916;2023-04-29T04:45:51;100634.41;;;7.83;59.50
76726;BME280;65651;53.154;17.916;2023-04-29T04:48:19;100634.43;;;7.95;59.36
76726;BME280;65651;53.154;17.916;2023-04-29T04:50:49;100634.94;;;8.10;59.57
76726;BME280;65651;53.154;17.916;2023-04-29T04:53:17;100632.71;;;8.26;59.24
76726;BME280;65651;53.154;17.916;2023-04-29T04:56:01;100635.77;;;8.45;59.11
76726;BME280;65651;53.154;17.916;2023-04-29T04:58:29;100629.59;;;8.63;59.12
76726;BME280;65651;53.154;17.916;2023-04-29T05:00:58;100634.64;;;8.79;58.77
76726;BME280;65651;53.154;17.916;2023-04-29T05:03:28;100637.36;;;8.95;58.60
76726;BME280;65651;53.154;17.916;2023-04-29T05:05:57;100637.34;;;9.09;58.66
76726;BME280;65651;53.154;17.916;2023-04-29T05:08:25;100633.23;;;9.23;58.45
76726;BME280;65651;53.154;17.916;2023-04-29T05:10:53;100634.12;;;9.39;58.44
76726;BME280;65651;53.154;17.916;2023-04-29T05:13:20;100635.27;;;9.60;58.16
76726;BME280;65651;53.154;17.916;2023-04-29T05:15:48;100633.99;;;9.82;57.85
76726;BME280;65651;53.154;17.916;2023-04-29T05:18:19;100635.24;;;9.89;57.82
76726;BME280;65651;53.154;17.916;2023-04-29T05:20:48;100638.13;;;9.91;57.69
76726;BME280;65651;53.154;17.916;2023-04-29T05:23:16;100641.81;;;9.88;57.62
76726;BME280;65651;53.154;17.916;2023-04-29T05:25:43;100644.92;;;9.84;57.67
76726;BME280;65651;53.154;17.916;2023-04-29T05:28:11;100650.63;;;9.78;57.74
76726;BME280;65651;53.154;17.916;2023-04-29T05:30:40;100648.16;;;9.70;57.97
76726;BME280;65651;53.154;17.916;2023-04-29T05:33:08;100650.58;;;9.65;57.75
76726;BME280;65651;53.154;17.916;2023-04-29T05:35:37;100650.23;;;9.61;58.08
76726;BME280;65651;53.154;17.916;2023-04-29T05:38:04;100651.00;;;9.60;58.15
76726;BME280;65651;53.154;17.916;2023-04-29T05:40:47;100653.47;;;9.65;58.49
76726;BME280;65651;53.154;17.916;2023-04-29T05:43:25;100650.77;;;9.75;58.60
76726;BME280;65651;53.154;17.916;2023-04-29T05:45:53;100648.71;;;9.87;58.76
76726;BME280;65651;53.154;17.916;2023-04-29T05:48:22;100647.08;;;9.97;58.91
76726;BME280;65651;53.154;17.916;2023-04-29T05:50:51;100647.75;;;10.04;58.67
76726;BME280;65651;53.154;17.916;2023-04-29T05:53:20;100645.45;;;10.11;58.67
76726;BME280;65651;53.154;17.916;2023-04-29T05:55:48;100645.25;;;10.23;58.76
76726;BME280;65651;53.154;17.916;2023-04-29T05:58:17;100643.23;;;10.37;58.56
76726;BME280;65651;53.154;17.916;2023-04-29T06:00:44;100641.02;;;10.55;58.33
76726;BME280;65651;53.154;17.916;2023-04-29T06:03:15;100639.98;;;10.73;58.43
76726;BME280;65651;53.154;17.916;2023-04-29T06:05:43;100641.70;;;10.91;58.27
76726;BME280;65651;53.154;17.916;2023-04-29T06:08:33;100639.86;;;11.23;57.83
76726;BME280;65651;53.154;17.916;2023-04-29T06:11:13;100642.08;;;11.60;57.45
76726;BME280;65651;53.154;17.916;2023-04-29T06:13:41;100637.63;;;12.02;56.99
76726;BME280;65651;53.154;17.916;2023-04-29T06:16:08;100635.91;;;12.33;56.59
76726;BME280;65651;53.154;17.916;2023-04-29T06:18:36;100637.21;;;12.55;56.54
76726;BME280;65651;53.154;17.916;2023-04-29T06:21:04;100637.15;;;12.71;56.07
76726;BME280;65651;53.154;17.916;2023-04-29T06:23:32;100636.87;;;12.79;55.79
76726;BME280;65651;53.154;17.916;2023-04-29T06:26:02;100635.80;;;12.87;55.43
76726;BME280;65651;53.154;17.916;2023-04-29T06:28:29;100635.30;;;13.02;55.05
76726;BME280;65651;53.154;17.916;2023-04-29T06:30:56;100635.42;;;13.18;54.95
76726;BME280;65651;53.154;17.916;2023-04-29T06:33:24;100632.14;;;13.59;54.58
76726;BME280;65651;53.154;17.916;2023-04-29T06:35:52;100630.35;;;14.04;54.20
76726;BME280;65651;53.154;17.916;2023-04-29T06:38:43;100635.96;;;14.22;53.77
76726;BME280;65651;53.154;17.916;2023-04-29T06:41:28;100634.04;;;14.25;53.26
76726;BME280;65651;53.154;17.916;2023-04-29T06:44:26;100634.70;;;14.35;52.84
76726;BME280;65651;53.154;17.916;2023-04-29T06:47:20;100634.25;;;14.42;52.62
76726;BME280;65651;53.154;17.916;2023-04-29T06:50:20;100633.13;;;14.48;52.16
76726;BME280;65651;53.154;17.916;2023-04-29T06:52:47;100630.91;;;14.45;51.62
76726;BME280;65651;53.154;17.916;2023-04-29T06:55:15;100634.10;;;14.31;51.67
76726;BME280;65651;53.154;17.916;2023-04-29T06:57:43;100637.38;;;14.22;51.60
76726;BME280;65651;53.154;17.916;2023-04-29T07:00:10;100636.28;;;14.16;51.31
76726;BME280;65651;53.154;17.916;2023-04-29T07:02:38;100638.56;;;14.13;51.41
76726;BME280;65651;53.154;17.916;2023-04-29T07:05:06;100639.51;;;14.03;51.20
76726;BME280;65651;53.154;17.916;2023-04-29T07:07:33;100639.96;;;13.92;51.29
76726;BME280;65651;53.154;17.916;2023-04-29T07:10:00;100641.98;;;13.82;51.40
76726;BME280;65651;53.154;17.916;2023-04-29T07:12:27;100640.88;;;13.79;51.42
76726;BME280;65651;53.154;17.916;2023-04-29T07:14:56;100640.04;;;13.80;51.37
76726;BME280;65651;53.154;17.916;2023-04-29T07:17:28;100636.50;;;13.84;51.34
76726;BME280;65651;53.154;17.916;2023-04-29T07:19:57;100639.80;;;13.85;51.20
76726;BME280;65651;53.154;17.916;2023-04-29T07:22:24;100633.48;;;13.85;51.22
76726;BME280;65651;53.154;17.916;2023-04-29T07:24:53;100637.25;;;13.91;51.29
76726;BME280;65651;53.154;17.916;2023-04-29T07:27:22;100637.29;;;13.93;51.02
76726;BME280;65651;53.154;17.916;2023-04-29T07:29:50;100635.30;;;13.95;51.14
76726;BME280;65651;53.154;17.916;2023-04-29T07:32:17;100634.85;;;13.97;51.19
76726;BME280;65651;53.154;17.916;2023-04-29T07:34:45;100637.39;;;13.94;51.25
76726;BME280;65651;53.154;17.916;2023-04-29T07:37:13;100641.79;;;13.86;51.25
76726;BME280;65651;53.154;17.916;2023-04-29T07:39:41;100645.48;;;13.80;51.28
76726;BME280;65651;53.154;17.916;2023-04-29T07:42:09;100645.29;;;13.68;51.42
76726;BME280;65651;53.154;17.916;2023-04-29T07:44:36;100647.84;;;13.59;51.54
76726;BME280;65651;53.154;17.916;2023-04-29T07:47:04;100649.77;;;13.53;51.76
76726;BME280;65651;53.154;17.916;2023-04-29T07:49:31;100649.08;;;13.50;51.57
76726;BME280;65651;53.154;17.916;2023-04-29T07:51:59;100651.26;;;13.51;51.62
76726;BME280;65651;53.154;17.916;2023-04-29T07:54:26;100652.55;;;13.54;51.78
76726;BME280;65651;53.154;17.916;2023-04-29T07:56:53;100652.83;;;13.53;52.15
76726;BME280;65651;53.154;17.916;2023-04-29T07:59:21;100653.98;;;13.49;52.20
76726;BME280;65651;53.154;17.916;2023-04-29T08:01:51;100653.94;;;13.45;52.35
76726;BME280;65651;53.154;17.916;2023-04-29T08:04:20;100657.20;;;13.43;52.42
76726;BME280;65651;53.154;17.916;2023-04-29T08:06:58;100659.02;;;13.44;52.72
76726;BME280;65651;53.154;17.916;2023-04-29T08:09:26;100661.41;;;13.44;52.91
76726;BME280;65651;53.154;17.916;2023-04-29T08:11:53;100663.72;;;13.44;53.34
76726;BME280;65651;53.154;17.916;2023-04-29T08:14:20;100671.10;;;13.41;53.64
76726;BME280;65651;53.154;17.916;2023-04-29T08:16:48;100668.33;;;13.38;53.79
76726;BME280;65651;53.154;17.916;2023-04-29T08:19:15;100664.73;;;13.36;53.91
76726;BME280;65651;53.154;17.916;2023-04-29T08:21:43;100666.68;;;13.35;54.10
76726;BME280;65651;53.154;17.916;2023-04-29T08:24:10;100666.27;;;13.34;54.31
76726;BME280;65651;53.154;17.916;2023-04-29T08:26:39;100664.49;;;13.30;54.53
76726;BME280;65651;53.154;17.916;2023-04-29T08:29:09;100663.44;;;13.28;55.15
76726;BME280;65651;53.154;17.916;2023-04-29T08:31:37;100662.54;;;13.19;55.46
76726;BME280;65651;53.154;17.916;2023-04-29T08:34:04;100663.63;;;13.14;55.81
76726;BME280;65651;53.154;17.916;2023-04-29T08:36:34;100666.54;;;13.17;56.12
76726;BME280;65651;53.154;17.916;2023-04-29T08:39:04;100667.95;;;13.25;56.34
76726;BME280;65651;53.154;17.916;2023-04-29T08:41:32;100669.83;;;13.31;56.71
76726;BME280;65651;53.154;17.916;2023-04-29T08:44:00;100671.15;;;13.34;56.66
76726;BME280;65651;53.154;17.916;2023-04-29T08:46:28;100671.39;;;13.31;56.66
76726;BME280;65651;53.154;17.916;2023-04-29T08:49:00;100671.72;;;13.35;56.76
76726;BME280;65651;53.154;17.916;2023-04-29T08:51:30;100671.30;;;13.40;57.15
76726;BME280;65651;53.154;17.916;2023-04-29T08:53:59;100671.80;;;13.45;56.70
76726;BME280;65651;53.154;17.916;2023-04-29T08:56:30;100668.17;;;13.53;56.55
76726;BME280;65651;53.154;17.916;2023-04-29T08:58:58;100672.45;;;13.60;56.62
76726;BME280;65651;53.154;17.916;2023-04-29T09:01:28;100674.45;;;13.60;56.40
76726;BME280;65651;53.154;17.916;2023-04-29T09:06:23;100675.44;;;13.58;56.60
76726;BME280;65651;53.154;17.916;2023-04-29T09:08:51;100672.25;;;13.57;56.46
76726;BME280;65651;53.154;17.916;2023-04-29T09:11:19;100672.05;;;13.51;56.41
76726;BME280;65651;53.154;17.916;2023-04-29T09:13:46;100672.09;;;13.42;56.39
76726;BME280;65651;53.154;17.916;2023-04-29T09:16:14;100670.55;;;13.32;56.15
76726;BME280;65651;53.154;17.916;2023-04-29T09:21:22;100668.39;;;13.23;56.54
76726;BME280;65651;53.154;17.916;2023-04-29T09:23:52;100665.96;;;13.25;56.34
76726;BME280;65651;53.154;17.916;2023-04-29T09:26:20;100661.65;;;13.26;56.15
76726;BME280;65651;53.154;17.916;2023-04-29T09:29:09;100661.02;;;13.32;56.10
76726;BME280;65651;53.154;17.916;2023-04-29T09:31:41;100656.73;;;13.47;56.07
76726;BME280;65651;53.154;17.916;2023-04-29T09:34:09;100655.73;;;13.55;55.99
76726;BME280;65651;53.154;17.916;2023-04-29T09:36:39;100656.78;;;13.53;56.11
76726;BME280;65651;53.154;17.916;2023-04-29T09:39:08;100660.64;;;13.55;55.92
76726;BME280;65651;53.154;17.916;2023-04-29T09:41:55;100663.33;;;13.61;56.00
76726;BME280;65651;53.154;17.916;2023-04-29T09:44:26;100663.23;;;13.69;56.33
76726;BME280;65651;53.154;17.916;2023-04-29T09:46:58;100668.60;;;13.86;56.22
76726;BME280;65651;53.154;17.916;2023-04-29T09:49:36;100665.70;;;14.03;55.91
76726;BME280;65651;53.154;17.916;2023-04-29T09:54:37;100664.59;;;14.21;55.55
76726;BME280;65651;53.154;17.916;2023-04-29T09:57:07;100661.48;;;14.18;55.40
76726;BME280;65651;53.154;17.916;2023-04-29T09:59:37;100660.50;;;14.20;55.56
76726;BME280;65651;53.154;17.916;2023-04-29T10:02:16;100660.95;;;14.26;55.64
76726;BME280;65651;53.154;17.916;2023-04-29T10:04:46;100656.45;;;14.34;55.52
76726;BME280;65651;53.154;17.916;2023-04-29T10:07:15;100652.17;;;14.37;55.54
76726;BME280;65651;53.154;17.916;2023-04-29T10:09:44;100648.23;;;14.43;55.44
76726;BME280;65651;53.154;17.916;2023-04-29T10:12:15;100647.79;;;14.52;55.47
76726;BME280;65651;53.154;17.916;2023-04-29T10:14:54;100645.84;;;14.57;55.31
76726;BME280;65651;53.154;17.916;2023-04-29T10:17:35;100641.95;;;14.69;55.07
76726;BME280;65651;53.154;17.916;2023-04-29T10:20:07;100646.39;;;14.87;55.01
76726;BME280;65651;53.154;17.916;2023-04-29T10:22:41;100641.91;;;15.03;54.84
76726;BME280;65651;53.154;17.916;2023-04-29T10:25:11;100645.80;;;15.24;54.80
76726;BME280;65651;53.154;17.916;2023-04-29T10:27:44;100640.63;;;15.49;54.40
76726;BME280;65651;53.154;17.916;2023-04-29T10:30:17;100637.39;;;15.72;54.01
76726;BME280;65651;53.154;17.916;2023-04-29T10:32:47;100629.23;;;16.05;53.79
76726;BME280;65651;53.154;17.916;2023-04-29T10:35:16;100628.50;;;16.47;53.45
76726;BME280;65651;53.154;17.916;2023-04-29T10:37:49;100630.70;;;16.83;52.97
76726;BME280;65651;53.154;17.916;2023-04-29T10:42:49;100629.80;;;17.23;52.00
76726;BME280;65651;53.154;17.916;2023-04-29T10:53:19;100636.27;;;16.81;51.22
76726;BME280;65651;53.154;17.916;2023-04-29T10:55:53;100633.11;;;16.60;51.29
76726;BME280;65651;53.154;17.916;2023-04-29T10:58:43;100632.48;;;16.30;51.32
76726;BME280;65651;53.154;17.916;2023-04-29T11:01:15;100628.02;;;16.02;51.42
76726;BME280;65651;53.154;17.916;2023-04-29T11:03:56;100633.94;;;15.86;51.42
76726;BME280;65651;53.154;17.916;2023-04-29T11:11:46;100640.58;;;15.48;51.67
76726;BME280;65651;53.154;17.916;2023-04-29T11:14:20;100639.71;;;15.27;51.99
76726;BME280;65651;53.154;17.916;2023-04-29T11:17:09;100639.33;;;15.13;52.16
76726;BME280;65651;53.154;17.916;2023-04-29T11:19:41;100637.61;;;15.04;52.45
76726;BME280;65651;53.154;17.916;2023-04-29T11:22:29;100636.52;;;15.07;52.57
76726;BME280;65651;53.154;17.916;2023-04-29T11:25:02;100637.02;;;15.03;52.76
76726;BME280;65651;53.154;17.916;2023-04-29T11:27:32;100635.90;;;15.01;53.02
76726;BME280;65651;53.154;17.916;2023-04-29T11:30:21;100633.55;;;15.10;52.97
76726;BME280;65651;53.154;17.916;2023-04-29T11:32:49;100634.84;;;15.17;53.01
76726;BME280;65651;53.154;17.916;2023-04-29T11:35:17;100630.52;;;15.28;53.11
76726;BME280;65651;53.154;17.916;2023-04-29T11:37:48;100629.21;;;15.33;53.19
76726;BME280;65651;53.154;17.916;2023-04-29T11:40:15;100630.28;;;15.36;53.17
76726;BME280;65651;53.154;17.916;2023-04-29T11:42:48;100628.63;;;15.59;52.99
76726;BME280;65651;53.154;17.916;2023-04-29T11:45:17;100628.19;;;15.87;52.81
76726;BME280;65651;53.154;17.916;2023-04-29T11:47:46;100619.60;;;16.23;52.50
76726;BME280;65651;53.154;17.916;2023-04-29T11:50:15;100617.84;;;16.59;52.03
76726;BME280;65651;53.154;17.916;2023-04-29T11:52:45;100622.04;;;16.86;51.72
76726;BME280;65651;53.154;17.916;2023-04-29T11:55:13;100618.56;;;17.07;51.39
76726;BME280;65651;53.154;17.916;2023-04-29T11:57:41;100614.92;;;17.36;50.84
76726;BME280;65651;53.154;17.916;2023-04-29T12:00:12;100621.14;;;17.60;50.04
76726;BME280;65651;53.154;17.916;2023-04-29T12:02:44;100622.29;;;17.75;49.67
76726;BME280;65651;53.154;17.916;2023-04-29T12:05:12;100623.61;;;17.74;49.19
76726;BME280;65651;53.154;17.916;2023-04-29T12:07:42;100621.89;;;17.53;49.13
76726;BME280;65651;53.154;17.916;2023-04-29T12:10:10;100618.19;;;17.42;48.80
76726;BME280;65651;53.154;17.916;2023-04-29T12:12:38;100616.70;;;17.05;48.73
76726;BME280;65651;53.154;17.916;2023-04-29T12:15:13;100614.36;;;16.87;48.89
76726;BME280;65651;53.154;17.916;2023-04-29T12:17:41;100613.60;;;16.85;48.88
76726;BME280;65651;53.154;17.916;2023-04-29T12:20:10;100614.57;;;16.82;48.75
76726;BME280;65651;53.154;17.916;2023-04-29T12:22:38;100619.32;;;16.81;48.75
76726;BME280;65651;53.154;17.916;2023-04-29T12:25:06;100621.38;;;16.93;48.57
76726;BME280;65651;53.154;17.916;2023-04-29T12:27:35;100617.42;;;16.97;48.54
76726;BME280;65651;53.154;17.916;2023-04-29T12:30:06;100620.00;;;16.93;48.48
76726;BME280;65651;53.154;17.916;2023-04-29T12:32:35;100617.77;;;16.92;48.41
76726;BME280;65651;53.154;17.916;2023-04-29T12:35:04;100617.98;;;17.01;48.38
76726;BME280;65651;53.154;17.916;2023-04-29T12:37:35;100614.72;;;17.16;48.25
76726;BME280;65651;53.154;17.916;2023-04-29T12:40:03;100612.06;;;17.28;48.05
76726;BME280;65651;53.154;17.916;2023-04-29T12:42:31;100611.52;;;17.41;47.99
76726;BME280;65651;53.154;17.916;2023-04-29T12:45:00;100608.35;;;17.60;47.76
76726;BME280;65651;53.154;17.916;2023-04-29T12:47:31;100608.54;;;17.71;47.53
76726;BME280;65651;53.154;17.916;2023-04-29T12:50:03;100602.04;;;17.81;47.38
76726;BME280;65651;53.154;17.916;2023-04-29T12:52:33;100598.10;;;17.89;47.03
76726;BME280;65651;53.154;17.916;2023-04-29T12:55:00;100594.73;;;17.97;47.15
76726;BME280;65651;53.154;17.916;2023-04-29T12:57:27;100592.16;;;18.12;46.95
76726;BME280;65651;53.154;17.916;2023-04-29T12:59:55;100588.97;;;18.17;46.72
76726;BME280;65651;53.154;17.916;2023-04-29T13:02:22;100584.30;;;18.28;46.66
76726;BME280;65651;53.154;17.916;2023-04-29T13:04:49;100584.07;;;18.42;46.44
76726;BME280;65651;53.154;17.916;2023-04-29T13:07:17;100585.63;;;18.54;46.27
76726;BME280;65651;53.154;17.916;2023-04-29T13:09:44;100586.25;;;18.67;45.87
76726;BME280;65651;53.154;17.916;2023-04-29T13:12:12;100582.98;;;18.76;45.65
76726;BME280;65651;53.154;17.916;2023-04-29T13:14:39;100585.39;;;18.71;45.85
76726;BME280;65651;53.154;17.916;2023-04-29T13:17:06;100582.44;;;18.73;45.76
76726;BME280;65651;53.154;17.916;2023-04-29T13:19:34;100582.23;;;18.72;45.55
76726;BME280;65651;53.154;17.916;2023-04-29T13:22:02;100580.27;;;18.60;45.45
76726;BME280;65651;53.154;17.916;2023-04-29T13:24:32;100572.58;;;18.48;45.57
76726;BME280;65651;53.154;17.916;2023-04-29T13:27:02;100574.02;;;18.46;45.42
76726;BME280;65651;53.154;17.916;2023-04-29T13:29:30;100569.27;;;18.49;45.49
76726;BME280;65651;53.154;17.916;2023-04-29T13:31:57;100569.86;;;18.59;45.36
76726;BME280;65651;53.154;17.916;2023-04-29T13:34:24;100568.28;;;18.62;45.23
76726;BME280;65651;53.154;17.916;2023-04-29T13:36:51;100567.17;;;18.59;45.22